createdAt,value
2022-09-11T00:01:13.863Z,27.43
2022-09-11T00:03:42.751Z,28.93
2022-09-11T00:06:13.572Z,25.57
2022-09-11T00:08:42.075Z,26.67
2022-09-11T00:11:11.534Z,24.03
2022-09-11T00:13:40.336Z,28.50
2022-09-11T00:16:20.603Z,26.50
2022-09-11T00:18:49.319Z,26.30
2022-09-11T00:21:23.174Z,27.17
2022-09-11T00:23:51.680Z,24.50
2022-09-11T00:26:20.021Z,25.90
2022-09-11T00:28:48.310Z,29.67
2022-09-11T00:31:18.757Z,25.27
2022-09-11T00:33:47.133Z,24.53
2022-09-11T00:36:16.428Z,26.77
2022-09-11T00:38:46.423Z,24.47
2022-09-11T00:41:19.082Z,28.87
2022-09-11T00:43:55.365Z,31.77
2022-09-11T00:46:26.214Z,31.37
2022-09-11T00:48:56.054Z,28.67
2022-09-11T00:51:27.128Z,29.27
2022-09-11T00:53:55.643Z,23.73
2022-09-11T00:56:23.936Z,23.93
2022-09-11T00:58:52.159Z,25.33
2022-09-11T01:01:20.306Z,24.63
2022-09-11T01:03:50.138Z,22.83
2022-09-11T01:06:20.866Z,24.90
2022-09-11T01:08:49.065Z,27.27
2022-09-11T01:11:22.415Z,30.23
2022-09-11T01:13:53.801Z,31.47
2022-09-11T01:16:24.421Z,27.90
2022-09-11T01:18:56.900Z,30.70
2022-09-11T01:21:47.222Z,27.00
2022-09-11T01:24:24.658Z,30.83
2022-09-11T01:27:03.762Z,31.57
2022-09-11T01:29:35.715Z,31.83
2022-09-11T01:32:06.095Z,29.13
2022-09-11T01:34:36.977Z,33.50
2022-09-11T01:37:06.739Z,30.53
2022-09-11T01:39:41.940Z,30.83
2022-09-11T01:42:14.863Z,34.67
2022-09-11T01:44:46.052Z,34.37
2022-09-11T01:47:14.209Z,35.03
2022-09-11T01:49:45.089Z,30.67
2022-09-11T01:52:14.545Z,30.40
2022-09-11T01:54:46.016Z,34.60
2022-09-11T01:57:17.854Z,35.70
2022-09-11T01:59:53.491Z,31.80
2022-09-11T02:02:24.037Z,33.27
2022-09-11T02:04:56.686Z,30.53
2022-09-11T02:07:26.057Z,33.50
2022-09-11T02:09:59.464Z,33.67
2022-09-11T02:12:31.180Z,35.70
2022-09-11T02:15:00.857Z,32.80
2022-09-11T02:17:32.850Z,32.83
2022-09-11T02:20:02.368Z,32.83
2022-09-11T02:22:31.112Z,39.53
2022-09-11T02:24:59.241Z,31.53
2022-09-11T02:27:28.575Z,33.20
2022-09-11T02:29:56.692Z,35.07
2022-09-11T02:32:27.070Z,37.00
2022-09-11T02:34:55.665Z,35.93
2022-09-11T02:37:31.498Z,35.37
2022-09-11T02:40:21.436Z,29.97
2022-09-11T02:42:58.531Z,40.03
2022-09-11T02:45:35.669Z,37.23
2022-09-11T02:48:12.591Z,34.20
2022-09-11T02:50:45.786Z,35.40
2022-09-11T02:53:15.743Z,37.13
2022-09-11T02:55:50.341Z,27.07
2022-09-11T02:58:21.392Z,22.13
2022-09-11T03:00:51.000Z,19.00
2022-09-11T03:03:21.250Z,18.57
2022-09-11T03:05:49.788Z,20.10
2022-09-11T03:08:18.066Z,21.30
2022-09-11T03:10:47.252Z,20.10
2022-09-11T03:13:15.837Z,24.07
2022-09-11T03:15:44.666Z,21.90
2022-09-11T03:18:13.725Z,27.07
2022-09-11T03:20:45.833Z,18.23
2022-09-11T03:23:14.286Z,15.67
2022-09-11T03:25:42.597Z,13.90
2022-09-11T03:28:10.854Z,12.07
2022-09-11T03:30:38.960Z,10.60
2022-09-11T03:33:08.531Z,11.37
2022-09-11T03:35:36.760Z,10.60
2022-09-11T03:38:06.415Z,18.50
2022-09-11T03:40:34.586Z,30.03
2022-09-11T03:43:02.891Z,34.17
2022-09-11T03:45:31.095Z,24.70
2022-09-11T03:47:59.291Z,16.70
2022-09-11T03:50:28.245Z,19.93
2022-09-11T03:52:56.374Z,24.47
2022-09-11T03:55:27.617Z,26.40
2022-09-11T03:57:55.854Z,25.93
2022-09-11T04:00:24.125Z,28.43
2022-09-11T04:02:52.393Z,25.20
2022-09-11T04:05:20.799Z,18.03
2022-09-11T04:07:50.122Z,12.00
2022-09-11T04:10:18.357Z,14.40
2022-09-11T04:12:47.883Z,12.60
2022-09-11T04:15:16.529Z,10.93
2022-09-11T04:17:44.625Z,9.50
2022-09-11T04:20:12.761Z,12.47
2022-09-11T04:22:41.658Z,20.63
2022-09-11T04:25:11.130Z,26.13
2022-09-11T04:27:39.865Z,18.93
2022-09-11T04:30:11.853Z,22.93
2022-09-11T04:32:40.127Z,43.00
2022-09-11T04:35:09.198Z,39.50
2022-09-11T04:37:37.429Z,44.30
2022-09-11T04:40:06.253Z,47.10
2022-09-11T04:42:34.367Z,28.80
2022-09-11T04:45:02.506Z,21.57
2022-09-11T04:47:32.475Z,39.67
2022-09-11T04:50:02.222Z,48.23
2022-09-11T04:52:30.413Z,48.27
2022-09-11T04:54:58.619Z,47.23
2022-09-11T04:57:26.878Z,47.03
2022-09-11T04:59:55.379Z,44.93
2022-09-11T05:02:23.883Z,38.37
2022-09-11T05:04:54.061Z,27.00
2022-09-11T05:07:22.158Z,24.13
2022-09-11T05:09:50.204Z,21.37
2022-09-11T05:12:18.334Z,21.90
2022-09-11T05:14:46.635Z,28.30
2022-09-11T05:17:17.953Z,42.90
2022-09-11T05:19:46.154Z,52.10
2022-09-11T05:22:16.007Z,53.03
2022-09-11T05:24:44.197Z,49.27
2022-09-11T05:27:12.325Z,49.70
2022-09-11T05:29:40.451Z,42.60
2022-09-11T05:32:08.679Z,49.47
2022-09-11T05:34:36.872Z,49.20
2022-09-11T05:37:05.681Z,53.07
2022-09-11T05:39:35.218Z,54.00
2022-09-11T05:42:04.674Z,56.50
2022-09-11T05:44:32.797Z,58.07
2022-09-11T05:47:00.976Z,62.27
2022-09-11T05:49:29.151Z,51.83
2022-09-11T05:51:57.220Z,57.93
2022-09-11T05:54:25.440Z,56.83
2022-09-11T05:56:55.767Z,43.20
2022-09-11T05:59:25.134Z,46.73
2022-09-11T06:01:54.399Z,37.77
2022-09-11T06:04:23.210Z,44.13
2022-09-11T06:06:51.372Z,41.67
2022-09-11T06:09:19.663Z,39.97
2022-09-11T06:11:47.862Z,50.30
2022-09-11T06:14:17.591Z,41.13
2022-09-11T06:16:45.846Z,35.70
2022-09-11T06:19:13.994Z,36.03
2022-09-11T06:21:42.059Z,35.07
2022-09-11T06:24:10.333Z,36.33
2022-09-11T06:26:38.481Z,38.00
2022-09-11T06:29:07.826Z,35.53
2022-09-11T06:31:38.827Z,30.17
2022-09-11T06:34:07.106Z,28.03
2022-09-11T06:36:35.378Z,28.33
2022-09-11T06:39:03.610Z,33.47
2022-09-11T06:41:33.074Z,29.67
2022-09-11T06:44:01.227Z,28.03
2022-09-11T06:46:29.512Z,27.00
2022-09-11T06:48:59.097Z,29.17
2022-09-11T06:51:27.576Z,36.67
2022-09-11T06:53:57.799Z,37.70
2022-09-11T06:56:26.222Z,34.07
2022-09-11T06:58:54.391Z,36.03
2022-09-11T07:01:23.602Z,29.43
2022-09-11T07:03:53.357Z,23.77
2022-09-11T07:06:24.669Z,17.90
2022-09-11T07:08:53.402Z,20.70
2022-09-11T07:11:21.594Z,24.20
2022-09-11T07:13:49.763Z,26.87
2022-09-11T07:16:17.896Z,27.67
2022-09-11T07:18:47.425Z,29.70
2022-09-11T07:21:16.395Z,34.63
2022-09-11T07:23:48.212Z,32.60
2022-09-11T07:26:16.628Z,29.23
2022-09-11T07:28:45.031Z,27.93
2022-09-11T07:31:17.478Z,32.37
2022-09-11T07:33:49.176Z,26.47
2022-09-11T07:36:18.786Z,29.97
2022-09-11T07:38:49.029Z,24.47
2022-09-11T07:41:20.541Z,25.03
2022-09-11T07:43:49.380Z,28.70
2022-09-11T07:46:17.487Z,18.87
2022-09-11T07:48:45.620Z,16.37
2022-09-11T07:51:14.935Z,17.17
2022-09-11T07:53:44.070Z,18.07
2022-09-11T07:56:15.016Z,14.07
2022-09-11T07:58:44.093Z,12.57
2022-09-11T08:01:13.502Z,10.53
2022-09-11T08:03:43.129Z,9.80
2022-09-11T08:06:13.525Z,9.50
2022-09-11T08:08:41.666Z,10.00
2022-09-11T08:11:10.861Z,7.70
2022-09-11T08:13:40.470Z,7.57
2022-09-11T08:16:08.801Z,6.27
2022-09-11T08:18:37.291Z,7.87
2022-09-11T08:21:08.553Z,6.90
2022-09-11T08:23:40.780Z,6.23
2022-09-11T08:26:09.955Z,7.47
2022-09-11T08:28:39.973Z,5.47
2022-09-11T08:31:08.255Z,8.90
2022-09-11T08:33:37.862Z,6.20
2022-09-11T08:36:08.449Z,6.13
2022-09-11T08:38:36.686Z,6.67
2022-09-11T08:41:12.247Z,6.23
2022-09-11T08:43:50.930Z,6.97
2022-09-11T08:46:19.109Z,6.73
2022-09-11T08:48:51.275Z,9.57
2022-09-11T08:51:19.611Z,8.50
2022-09-11T08:53:49.015Z,7.57
2022-09-11T08:56:18.684Z,7.83
2022-09-11T08:59:06.439Z,8.37
2022-09-11T09:01:37.790Z,7.37
2022-09-11T09:04:15.640Z,6.90
2022-09-11T09:06:51.124Z,5.97
2022-09-11T09:09:22.938Z,5.17
2022-09-11T09:11:55.661Z,7.03
2022-09-11T09:15:05.993Z,6.33
2022-09-11T09:17:38.087Z,4.43
2022-09-11T09:20:11.062Z,9.60
2022-09-11T09:22:41.055Z,7.63
2022-09-11T09:25:12.728Z,8.97
2022-09-11T09:27:44.115Z,7.07
2022-09-11T09:30:16.197Z,6.20
2022-09-11T09:32:48.821Z,9.30
2022-09-11T09:35:18.127Z,6.50
2022-09-11T09:37:46.674Z,5.90
2022-09-11T09:40:18.761Z,8.00
2022-09-11T09:43:17.349Z,4.90
2022-09-11T09:46:06.366Z,7.17
2022-09-11T09:48:37.141Z,6.73
2022-09-11T09:51:05.375Z,6.13
2022-09-11T09:53:36.217Z,5.57
2022-09-11T09:56:05.599Z,5.50
2022-09-11T09:58:35.436Z,5.43
2022-09-11T10:01:03.769Z,6.83
2022-09-11T10:03:31.918Z,4.30
2022-09-11T10:06:02.890Z,4.63
2022-09-11T10:08:34.785Z,7.17
2022-09-11T10:11:03.961Z,4.77
2022-09-11T10:13:33.437Z,6.90
2022-09-11T10:16:03.706Z,5.77
2022-09-11T10:18:43.996Z,8.10
2022-09-11T10:21:21.781Z,5.83
2022-09-11T10:23:52.224Z,3.77
2022-09-11T10:26:23.159Z,7.17
2022-09-11T10:28:52.635Z,8.17
2022-09-11T10:31:22.952Z,8.60
2022-09-11T10:33:55.666Z,8.17
2022-09-11T10:36:27.226Z,6.97
2022-09-11T10:38:59.182Z,8.50
2022-09-11T10:41:27.888Z,7.50
2022-09-11T10:43:58.905Z,5.67
2022-09-11T10:46:39.615Z,4.07
2022-09-11T10:49:26.792Z,5.90
2022-09-11T10:52:05.494Z,6.40
2022-09-11T10:54:46.529Z,5.17
2022-09-11T10:57:19.509Z,6.43
2022-09-11T11:00:02.407Z,6.33
2022-09-11T11:02:31.874Z,6.97
2022-09-11T11:05:02.057Z,5.70
2022-09-11T11:07:47.644Z,8.60
2022-09-11T11:10:23.629Z,7.37
2022-09-11T11:12:58.952Z,6.00
2022-09-11T11:15:32.496Z,4.80
2022-09-11T11:18:14.171Z,4.93
2022-09-11T11:20:46.913Z,5.60
2022-09-11T11:23:24.495Z,5.77
2022-09-11T11:25:57.629Z,5.63
2022-09-11T11:28:47.790Z,5.93
2022-09-11T11:31:23.853Z,5.57
2022-09-11T11:34:04.235Z,5.00
2022-09-11T11:36:34.422Z,5.43
2022-09-11T11:39:10.044Z,4.53
2022-09-11T11:41:44.970Z,4.03
2022-09-11T11:44:15.653Z,3.10
2022-09-11T11:46:46.036Z,5.70
2022-09-11T11:49:17.450Z,3.70
2022-09-11T11:51:48.631Z,5.57
2022-09-11T11:54:20.709Z,8.00
2022-09-11T11:56:50.224Z,4.37
2022-09-11T11:59:23.546Z,5.03
2022-09-11T12:01:56.068Z,5.10
2022-09-11T12:04:31.114Z,2.37
2022-09-11T12:06:59.872Z,4.00
2022-09-11T12:09:33.776Z,6.90
2022-09-11T12:12:05.803Z,3.97
2022-09-11T12:14:34.326Z,3.33
2022-09-11T12:17:21.870Z,4.37
2022-09-11T12:20:17.318Z,3.97
2022-09-11T12:22:48.817Z,7.00
2022-09-11T12:25:49.589Z,7.27
2022-09-11T12:28:27.285Z,4.83
2022-09-11T12:30:58.140Z,4.97
2022-09-11T12:33:54.643Z,4.37
2022-09-11T12:36:38.661Z,5.43
2022-09-11T12:39:18.467Z,5.33
2022-09-11T12:41:49.355Z,4.93
2022-09-11T12:44:31.768Z,5.27
2022-09-11T12:47:12.619Z,8.23
2022-09-11T12:49:41.973Z,4.17
2022-09-11T12:52:20.861Z,4.27
2022-09-11T12:54:48.907Z,3.77
2022-09-11T12:57:29.200Z,3.53
2022-09-11T12:59:59.477Z,4.67
2022-09-11T13:02:30.067Z,4.23
2022-09-11T13:04:58.212Z,5.90
2022-09-11T13:07:32.070Z,5.87
2022-09-11T13:10:01.658Z,3.30
2022-09-11T13:12:54.121Z,5.47
2022-09-11T13:15:39.032Z,4.50
2022-09-11T13:18:32.306Z,6.17
2022-09-11T13:21:01.945Z,5.57
2022-09-11T13:23:30.346Z,3.83
2022-09-11T13:25:59.023Z,5.47
2022-09-11T13:28:31.226Z,4.93
2022-09-11T13:31:02.255Z,3.63
2022-09-11T13:33:31.237Z,7.07
2022-09-11T13:35:59.510Z,5.50
2022-09-11T13:38:30.075Z,5.47
2022-09-11T13:40:59.074Z,4.33
2022-09-11T13:43:31.074Z,4.90
2022-09-11T13:46:22.392Z,4.17
2022-09-11T13:48:51.535Z,2.30
2022-09-11T13:51:22.158Z,4.27
2022-09-11T13:53:58.113Z,3.67
2022-09-11T13:56:41.634Z,2.87
2022-09-11T13:59:57.193Z,5.43
2022-09-11T14:02:50.812Z,4.23
2022-09-11T14:05:22.138Z,2.63
2022-09-11T14:07:57.374Z,4.97
2022-09-11T14:10:29.380Z,5.00
2022-09-11T14:13:16.291Z,5.40
2022-09-11T14:15:50.653Z,5.73
2022-09-11T14:18:25.332Z,3.53
2022-09-11T14:20:55.080Z,5.77
2022-09-11T14:23:25.264Z,6.63
2022-09-11T14:26:07.551Z,3.83
2022-09-11T14:28:51.641Z,3.03
2022-09-11T14:31:36.423Z,4.57
2022-09-11T14:34:15.152Z,4.27
2022-09-11T14:36:45.183Z,3.07
2022-09-11T14:39:15.786Z,2.92
2022-09-11T14:41:45.690Z,3.65
2022-09-11T14:44:14.808Z,4.05
2022-09-11T14:46:44.575Z,3.80
2022-09-11T14:49:15.484Z,4.45
2022-09-11T14:51:45.245Z,3.53
2022-09-11T14:54:15.433Z,3.00
2022-09-11T14:56:44.846Z,3.53
2022-09-11T14:59:14.014Z,2.75
2022-09-11T15:01:45.229Z,4.13
2022-09-11T15:04:17.739Z,4.53
2022-09-11T15:06:46.040Z,5.65
2022-09-11T15:09:14.204Z,3.25
2022-09-11T15:11:43.942Z,4.40
2022-09-11T15:14:27.490Z,3.03
2022-09-11T15:17:03.277Z,4.57
2022-09-11T15:19:31.516Z,2.63
2022-09-11T15:22:00.779Z,3.25
2022-09-11T15:24:29.075Z,2.67
2022-09-11T15:26:57.313Z,3.72
2022-09-11T15:29:30.728Z,3.28
2022-09-11T15:32:01.157Z,5.00
2022-09-11T15:34:33.314Z,3.45
2022-09-11T15:37:01.555Z,3.92
2022-09-11T15:39:30.274Z,3.90
2022-09-11T15:41:58.515Z,5.78
2022-09-11T15:44:27.667Z,3.42
2022-09-11T15:46:56.276Z,2.65
2022-09-11T15:49:25.273Z,4.82
2022-09-11T15:51:55.017Z,5.72
2022-09-11T15:54:24.366Z,6.38
2022-09-11T15:56:52.937Z,2.75
2022-09-11T15:59:21.187Z,2.43
2022-09-11T16:01:49.488Z,3.97
2022-09-11T16:04:20.358Z,2.90
2022-09-11T16:06:48.930Z,5.27
2022-09-11T16:09:20.663Z,5.70
2022-09-11T16:11:50.469Z,3.87
2022-09-11T16:14:19.119Z,3.07
2022-09-11T16:16:48.117Z,4.23
2022-09-11T16:19:16.558Z,3.67
2022-09-11T16:21:44.695Z,3.00
2022-09-11T16:24:19.336Z,2.70
2022-09-11T16:26:47.586Z,3.53
2022-09-11T16:29:18.310Z,6.43
2022-09-11T16:31:46.591Z,2.10
2022-09-11T16:34:15.108Z,2.40
2022-09-11T16:36:43.265Z,4.27
2022-09-11T16:39:12.178Z,9.97
2022-09-11T16:41:41.659Z,4.50
2022-09-11T16:44:11.998Z,2.67
2022-09-11T16:46:40.761Z,2.47
2022-09-11T16:49:09.266Z,3.87
2022-09-11T16:51:37.640Z,2.97
2022-09-11T16:54:05.929Z,4.23
2022-09-11T16:56:33.999Z,3.60
2022-09-11T16:59:03.687Z,10.00
2022-09-11T17:01:31.865Z,4.60
2022-09-11T17:04:00.254Z,3.80
2022-09-11T17:06:30.302Z,8.47
2022-09-11T17:09:00.273Z,3.03
2022-09-11T17:11:30.171Z,4.87
2022-09-11T17:14:00.691Z,3.63
2022-09-11T17:16:32.380Z,4.30
2022-09-11T17:19:01.588Z,4.33
2022-09-11T17:21:30.068Z,3.50
2022-09-11T17:24:07.503Z,3.40
2022-09-11T17:26:36.148Z,2.87
2022-09-11T17:29:04.757Z,2.70
2022-09-11T17:31:34.449Z,3.57
2022-09-11T17:34:02.915Z,4.83
2022-09-11T17:36:31.006Z,3.53
2022-09-11T17:38:59.402Z,4.80
2022-09-11T17:41:27.673Z,4.37
2022-09-11T17:43:55.886Z,2.70
2022-09-11T17:46:25.257Z,2.47
2022-09-11T17:48:54.952Z,3.17
2022-09-11T17:51:24.197Z,5.23
2022-09-11T17:53:53.085Z,4.07
2022-09-11T17:56:22.078Z,5.07
2022-09-11T17:58:51.486Z,3.93
2022-09-11T18:01:20.007Z,3.87
2022-09-11T18:03:51.293Z,4.13
2022-09-11T18:06:23.539Z,6.07
2022-09-11T18:08:51.758Z,8.23
2022-09-11T18:11:20.014Z,4.83
2022-09-11T18:13:48.452Z,3.83
2022-09-11T18:16:17.514Z,3.33
2022-09-11T18:18:45.811Z,3.97
2022-09-11T18:21:14.202Z,4.60
2022-09-11T18:23:44.814Z,2.40
2022-09-11T18:26:19.956Z,4.10
2022-09-11T18:28:49.268Z,3.70
2022-09-11T18:31:20.423Z,3.40
2022-09-11T18:33:54.656Z,4.63
2022-09-11T18:36:23.634Z,4.07
2022-09-11T18:38:53.533Z,4.67
2022-09-11T18:41:23.685Z,4.30
2022-09-11T18:43:55.617Z,6.23
2022-09-11T18:46:23.976Z,2.63
2022-09-11T18:48:52.674Z,5.47
2022-09-11T18:51:21.393Z,3.30
2022-09-11T18:53:52.057Z,3.57
2022-09-11T18:56:22.062Z,6.67
2022-09-11T18:58:52.284Z,4.97
2022-09-11T19:01:24.117Z,2.67
2022-09-11T19:03:53.292Z,5.13
2022-09-11T19:06:22.297Z,5.03
2022-09-11T19:08:50.969Z,3.83
2022-09-11T19:11:21.013Z,5.23
2022-09-11T19:13:51.036Z,5.67
2022-09-11T19:16:19.687Z,4.77
2022-09-11T19:18:47.954Z,3.50
2022-09-11T19:21:20.187Z,6.27
2022-09-11T19:23:49.629Z,5.73
2022-09-11T19:26:19.214Z,4.20
2022-09-11T19:28:47.626Z,5.37
2022-09-11T19:31:18.295Z,5.43
2022-09-11T19:33:46.443Z,4.63
2022-09-11T19:36:17.010Z,5.37
2022-09-11T19:38:45.889Z,5.20
2022-09-11T19:41:24.233Z,4.17
2022-09-11T19:43:54.191Z,3.53
2022-09-11T19:46:25.119Z,5.40
2022-09-11T19:48:53.610Z,4.47
2022-09-11T19:51:23.799Z,4.90
2022-09-11T19:53:52.700Z,5.40
2022-09-11T19:56:20.914Z,4.93
2022-09-11T19:58:49.174Z,4.27
2022-09-11T20:01:18.297Z,5.03
2022-09-11T20:03:47.921Z,6.63
2022-09-11T20:06:17.015Z,4.70
2022-09-11T20:08:45.887Z,5.03
2022-09-11T20:11:16.172Z,7.10
2022-09-11T20:13:45.688Z,6.70
2022-09-11T20:16:15.775Z,5.50
2022-09-11T20:18:44.109Z,6.03
2022-09-11T20:21:15.633Z,8.17
2022-09-11T20:23:45.208Z,6.10
2022-09-11T20:26:17.272Z,7.50
2022-09-11T20:28:45.725Z,7.40
2022-09-11T20:31:15.060Z,8.00
2022-09-11T20:33:43.330Z,6.57
2022-09-11T20:36:13.280Z,6.80
2022-09-11T20:38:41.706Z,7.10
2022-09-11T20:41:14.285Z,9.30
2022-09-11T20:43:42.684Z,6.73
2022-09-11T20:46:11.165Z,6.40
2022-09-11T20:48:39.414Z,6.87
2022-09-11T20:51:08.968Z,12.17
2022-09-11T20:53:39.018Z,7.33
2022-09-11T20:56:08.990Z,8.60
2022-09-11T20:58:37.242Z,9.10
2022-09-11T21:01:05.806Z,7.37
2022-09-11T21:03:33.968Z,6.10
2022-09-11T21:06:06.921Z,6.97
2022-09-11T21:08:35.260Z,6.83
2022-09-11T21:11:05.275Z,7.27
2022-09-11T21:13:35.843Z,7.27
2022-09-11T21:16:07.134Z,7.57
2022-09-11T21:18:35.805Z,7.27
2022-09-11T21:21:04.381Z,7.33
2022-09-11T21:23:32.562Z,6.73
2022-09-11T21:26:00.717Z,10.63
2022-09-11T21:28:31.899Z,7.70
2022-09-11T21:31:00.174Z,8.43
2022-09-11T21:33:28.335Z,8.83
2022-09-11T21:35:56.600Z,8.97
2022-09-11T21:38:28.444Z,8.20
2022-09-11T21:40:56.816Z,9.80
2022-09-11T21:43:24.990Z,7.83
2022-09-11T21:45:54.652Z,7.83
2022-09-11T21:48:22.760Z,8.90
2022-09-11T21:50:51.126Z,8.40
2022-09-11T21:53:19.595Z,9.33
2022-09-11T21:55:48.620Z,9.00
2022-09-11T21:58:17.430Z,10.17
2022-09-11T22:00:47.866Z,10.93
2022-09-11T22:03:18.575Z,12.20
2022-09-11T22:05:48.821Z,12.70
2022-09-11T22:08:18.513Z,12.57
2022-09-11T22:10:49.925Z,11.10
2022-09-11T22:13:18.229Z,11.33
2022-09-11T22:15:47.182Z,14.47
2022-09-11T22:18:15.276Z,10.77
2022-09-11T22:20:53.647Z,10.93
2022-09-11T22:23:22.171Z,14.00
2022-09-11T22:25:50.342Z,14.47
2022-09-11T22:28:18.526Z,13.50
2022-09-11T22:30:46.720Z,14.73
2022-09-11T22:33:17.496Z,14.80
2022-09-11T22:35:49.516Z,14.37
2022-09-11T22:38:17.742Z,16.50
2022-09-11T22:40:45.906Z,16.40
2022-09-11T22:45:56.436Z,18.10
2022-09-11T22:48:24.521Z,16.10
2022-09-11T22:50:54.395Z,16.00
2022-09-11T22:53:22.505Z,18.53
2022-09-11T22:55:54.120Z,18.07
2022-09-11T22:58:22.571Z,18.57
2022-09-11T23:00:51.365Z,19.43
2022-09-11T23:03:19.562Z,21.47
2022-09-11T23:06:05.070Z,21.70
2022-09-11T23:08:39.100Z,21.60
2022-09-11T23:11:07.849Z,22.43
2022-09-11T23:13:37.814Z,19.60
2022-09-11T23:16:13.013Z,21.53
2022-09-11T23:18:41.413Z,20.13
2022-09-11T23:21:09.543Z,23.37
2022-09-11T23:23:42.379Z,22.47
2022-09-11T23:26:12.006Z,23.07
2022-09-11T23:28:40.513Z,23.23
2022-09-11T23:31:13.190Z,24.53
2022-09-11T23:33:42.046Z,26.00
2022-09-11T23:36:11.502Z,24.70
2022-09-11T23:38:41.107Z,24.27
2022-09-11T23:41:09.340Z,26.13
2022-09-11T23:43:37.414Z,25.33
2022-09-11T23:46:05.759Z,25.23
2022-09-11T23:48:33.902Z,26.17
2022-09-11T23:51:02.215Z,21.90
2022-09-11T23:53:30.486Z,24.97
2022-09-11T23:56:00.269Z,23.20
2022-09-11T23:58:28.437Z,23.63
